Strona główna
METAR-TAF:

METAR-TAF

Lotnisko :

Port lotniczy Belfast-International

Belfast, Irlandia Północna

Szerokość geograficzna: 54-39N, Długość geograficzna: 006-13W, wysokość: 81 m

Aktualna obserwacja pogody

Raport powstał 37 minut temu, godzina 21:50 UTC
Wiatr 8 kt od wschodnio-południowy wschód
Temperatura 13°C
Wilgotność 67%
Ciśnienie 1022 hPa
Widzialność 10 km lub więcej
Brak chmur poniżej 1500 m i brak chmur cumulonimbus

METAR: EGAA 302150Z 11008KT CAVOK 13/07 Q1022

czas: 23:27 (22:27 UTC)

Prognoza

Raport powstał 5 godziny i 31 minut temu, godzina 16:56 UTC
Prognoza ważna od 30 godzina 18 UTC do 31 godzina 18 UTC
Wiatr 12 kt od wschodnio-południowy wschód
Widzialność 10 km lub więcej
Brak chmur poniżej 1500 m i brak chmur cumulonimbus

TAF: EGAA 301656Z 3018/3118 12012KT CAVOK

Obserwacja i prognoza pogody dla ponad 4000 lotnisk (raport METAR i TAF).

Dostępne stacje oznaczono żółtymi i czerwonymi punktami na mapie.

Najedź kursorem aby zobaczyć nazwę stacji.

Kliknij aby zobaczyć obserwacje i prognozy pogody.

Aby zmienić mapę: kliknij na zielony przycisk z czarnym krzyżykiem, aby powiększyć; na zielony przycisk z myślnikiem, aby pomniejszyć; na zielone strzałki, aby przejść do map sąsiednich.


METAR-TAF: